createdAt,value
2022-08-22T00:00:25.608Z,1.92
2022-08-22T00:02:56.172Z,2.85
2022-08-22T00:03:03.387Z,2.30
2022-08-22T00:05:52.200Z,2.17
2022-08-22T00:08:30.355Z,2.00
2022-08-22T00:11:25.829Z,2.15
2022-08-22T00:14:32.466Z,1.85
2022-08-22T00:17:13.207Z,1.90
2022-08-22T00:19:42.812Z,2.47
2022-08-22T00:22:21.385Z,2.08
2022-08-22T00:25:25.605Z,1.90
2022-08-22T00:28:28.278Z,1.90
2022-08-22T00:31:09.140Z,1.95
2022-08-22T00:34:01.480Z,2.10
2022-08-22T00:36:47.938Z,2.20
2022-08-22T00:39:45.046Z,2.05
2022-08-22T00:42:41.198Z,1.92
2022-08-22T00:45:16.621Z,1.92
2022-08-22T00:48:01.771Z,1.95
2022-08-22T00:51:00.794Z,2.38
2022-08-22T00:53:55.215Z,1.95
2022-08-22T00:57:00.878Z,1.80
2022-08-22T00:59:50.389Z,1.98
2022-08-22T01:02:26.256Z,1.85
2022-08-22T01:05:08.098Z,2.15
2022-08-22T01:08:03.366Z,1.98
2022-08-22T01:10:42.912Z,1.60
2022-08-22T01:13:57.105Z,2.30
2022-08-22T01:16:42.563Z,1.95
2022-08-22T01:19:34.263Z,2.10
2022-08-22T01:22:19.171Z,2.00
2022-08-22T01:25:20.918Z,2.10
2022-08-22T01:28:15.993Z,2.20
2022-08-22T01:31:42.545Z,2.10
2022-08-22T01:34:28.674Z,2.30
2022-08-22T01:37:07.638Z,2.15
2022-08-22T01:39:42.935Z,2.22
2022-08-22T01:42:35.851Z,2.13
2022-08-22T01:45:14.557Z,1.98
2022-08-22T01:47:57.043Z,2.05
2022-08-22T01:50:39.711Z,2.70
2022-08-22T01:53:13.821Z,2.40
2022-08-22T01:56:06.489Z,2.33
2022-08-22T01:58:37.235Z,2.25
2022-08-22T02:01:07.322Z,1.83
2022-08-22T02:03:58.076Z,2.23
2022-08-22T02:06:36.750Z,2.22
2022-08-22T02:09:30.476Z,3.13
2022-08-22T02:12:22.070Z,2.30
2022-08-22T02:15:11.062Z,2.10
2022-08-22T02:18:06.111Z,1.90
2022-08-22T02:20:46.291Z,2.65
2022-08-22T02:23:43.946Z,2.20
2022-08-22T02:26:17.692Z,2.00
2022-08-22T02:28:57.119Z,2.20
2022-08-22T02:31:46.325Z,2.08
2022-08-22T02:34:44.430Z,2.40
2022-08-22T02:37:24.516Z,1.70
2022-08-22T02:40:17.162Z,1.95
2022-08-22T02:42:55.259Z,2.00
2022-08-22T02:45:40.241Z,2.10
2022-08-22T02:48:27.810Z,2.20
2022-08-22T02:50:57.462Z,2.15
2022-08-22T02:53:50.206Z,2.10
2022-08-22T02:56:25.030Z,2.00
2022-08-22T02:59:11.513Z,1.90
2022-08-22T03:01:45.537Z,2.22
2022-08-22T03:04:21.650Z,2.22
2022-08-22T03:07:06.894Z,2.33
2022-08-22T03:09:40.225Z,2.25
2022-08-22T03:12:29.806Z,2.83
2022-08-22T03:15:06.130Z,2.67
2022-08-22T03:17:47.864Z,2.08
2022-08-22T03:20:22.313Z,2.20
2022-08-22T03:22:56.446Z,2.42
2022-08-22T03:25:40.501Z,2.63
2022-08-22T03:28:32.448Z,2.65
2022-08-22T03:31:09.794Z,2.83
2022-08-22T03:33:38.119Z,1.90
2022-08-22T03:36:13.014Z,2.50
2022-08-22T03:39:15.319Z,2.60
2022-08-22T03:41:55.331Z,1.98
2022-08-22T03:44:46.329Z,2.20
2022-08-22T03:47:50.598Z,1.95
2022-08-22T03:50:41.863Z,2.25
2022-08-22T03:56:25.102Z,2.97
2022-08-22T03:59:35.735Z,2.60
2022-08-22T04:02:31.513Z,3.45
2022-08-22T04:05:34.767Z,2.95
2022-08-22T04:08:13.399Z,2.67
2022-08-22T04:10:55.148Z,2.90
2022-08-22T04:13:27.782Z,3.42
2022-08-22T04:16:19.223Z,4.50
2022-08-22T04:19:08.045Z,3.42
2022-08-22T04:22:02.691Z,3.13
2022-08-22T04:24:32.352Z,4.00
2022-08-22T04:27:36.568Z,4.75
2022-08-22T04:30:07.072Z,4.22
2022-08-22T04:32:50.059Z,4.20
2022-08-22T04:35:59.668Z,4.15
2022-08-22T04:38:33.870Z,4.13
2022-08-22T04:41:11.148Z,4.28
2022-08-22T04:44:01.977Z,3.60
2022-08-22T04:46:57.776Z,4.07
2022-08-22T04:50:10.046Z,4.32
2022-08-22T04:52:48.837Z,4.05
2022-08-22T04:55:27.040Z,4.57
2022-08-22T04:57:56.579Z,4.65
2022-08-22T05:00:24.493Z,5.20
2022-08-22T05:05:34.634Z,4.55
2022-08-22T05:08:03.345Z,4.07
2022-08-22T05:10:42.882Z,5.55
2022-08-22T05:13:19.986Z,5.88
2022-08-22T05:15:52.333Z,7.22
2022-08-22T05:18:30.466Z,6.47
2022-08-22T05:21:01.183Z,6.78
2022-08-22T05:23:34.466Z,6.47
2022-08-22T05:26:04.647Z,5.68
2022-08-22T05:28:52.877Z,5.72
2022-08-22T05:31:29.433Z,5.55
2022-08-22T05:34:04.583Z,5.70
2022-08-22T05:36:40.250Z,5.30
2022-08-22T05:39:28.196Z,5.00
2022-08-22T05:41:57.103Z,4.93
2022-08-22T05:44:32.344Z,4.78
2022-08-22T05:47:04.610Z,5.25
2022-08-22T05:49:54.119Z,4.40
2022-08-22T05:52:39.041Z,4.78
2022-08-22T05:55:39.806Z,4.60
2022-08-22T05:58:41.556Z,4.35
2022-08-22T06:01:29.363Z,5.95
2022-08-22T06:04:15.427Z,4.78
2022-08-22T06:07:00.139Z,5.25
2022-08-22T06:09:48.214Z,4.90
2022-08-22T06:12:21.935Z,4.60
2022-08-22T06:15:13.396Z,5.00
2022-08-22T06:17:48.659Z,4.85
2022-08-22T06:20:24.126Z,5.43
2022-08-22T06:22:56.994Z,4.05
2022-08-22T06:25:32.642Z,4.10
2022-08-22T06:28:06.449Z,3.85
2022-08-22T06:30:35.549Z,4.03
2022-08-22T06:33:08.403Z,3.95
2022-08-22T06:36:08.155Z,3.95
2022-08-22T06:39:06.583Z,4.72
2022-08-22T06:41:39.401Z,3.92
2022-08-22T06:44:08.036Z,3.97
2022-08-22T06:46:37.523Z,4.28
2022-08-22T06:49:07.464Z,3.15
2022-08-22T06:51:37.713Z,4.47
2022-08-22T06:54:06.816Z,3.78
2022-08-22T06:56:43.516Z,3.80
2022-08-22T06:59:15.873Z,4.15
2022-08-22T07:01:53.646Z,3.90
2022-08-22T07:04:26.521Z,3.85
2022-08-22T07:06:56.348Z,3.60
2022-08-22T07:09:31.094Z,3.80
2022-08-22T07:12:01.449Z,4.10
2022-08-22T07:14:38.553Z,3.80
2022-08-22T07:17:09.262Z,3.95
2022-08-22T07:19:45.550Z,6.47
2022-08-22T07:22:14.917Z,7.93
2022-08-22T07:24:55.806Z,9.43
2022-08-22T07:30:27.406Z,4.22
2022-08-22T07:33:25.817Z,4.32
2022-08-22T07:35:53.528Z,4.60
2022-08-22T07:38:20.375Z,4.38
2022-08-22T07:40:59.725Z,3.70
2022-08-22T07:43:30.137Z,3.90
2022-08-22T07:46:01.311Z,4.70
2022-08-22T07:48:33.996Z,3.88
2022-08-22T07:51:01.068Z,4.15
2022-08-22T07:53:39.684Z,3.55
2022-08-22T07:56:09.810Z,4.00
2022-08-22T07:58:40.538Z,4.47
2022-08-22T08:03:36.208Z,7.80
2022-08-22T08:06:04.206Z,2.75
2022-08-22T08:08:38.998Z,3.10
2022-08-22T08:11:10.078Z,2.60
2022-08-22T08:13:41.246Z,2.92
2022-08-22T08:16:15.707Z,2.95
2022-08-22T08:18:45.704Z,3.45
2022-08-22T08:21:37.127Z,2.67
2022-08-22T08:24:08.196Z,2.90
2022-08-22T08:27:01.888Z,2.90
2022-08-22T08:29:29.827Z,2.92
2022-08-22T08:31:58.503Z,2.90
2022-08-22T08:34:27.374Z,3.00
2022-08-22T08:37:02.902Z,2.80
2022-08-22T08:39:38.760Z,3.45
2022-08-22T08:42:56.638Z,3.30
2022-08-22T08:45:56.407Z,2.97
2022-08-22T08:48:59.678Z,3.10
2022-08-22T08:51:56.146Z,3.60
2022-08-22T08:54:41.030Z,3.15
2022-08-22T08:57:36.239Z,3.05
2022-08-22T09:00:23.349Z,3.20
2022-08-22T09:03:30.957Z,3.75
2022-08-22T09:06:42.598Z,3.42
2022-08-22T09:09:30.748Z,3.78
2022-08-22T09:12:12.516Z,3.65
2022-08-22T09:14:48.225Z,3.58
2022-08-22T09:17:38.304Z,3.53
2022-08-22T09:20:17.945Z,3.53
2022-08-22T09:23:04.521Z,3.13
2022-08-22T09:25:46.194Z,3.50
2022-08-22T09:28:17.261Z,3.50
2022-08-22T09:31:16.852Z,3.03
2022-08-22T09:34:05.338Z,3.40
2022-08-22T09:36:44.008Z,3.45
2022-08-22T09:39:24.588Z,3.92
2022-08-22T09:42:23.770Z,3.30
2022-08-22T09:45:28.821Z,3.58
2022-08-22T09:48:07.652Z,3.70
2022-08-22T09:50:41.386Z,3.25
2022-08-22T09:53:21.378Z,3.20
2022-08-22T09:55:54.432Z,3.00
2022-08-22T09:58:28.341Z,3.40
2022-08-22T10:01:00.538Z,3.78
2022-08-22T10:03:45.599Z,3.72
2022-08-22T10:06:20.722Z,3.20
2022-08-22T10:09:09.491Z,3.40
2022-08-22T10:11:49.778Z,3.70
2022-08-22T10:14:38.201Z,3.15
2022-08-22T10:17:32.622Z,3.03
2022-08-22T10:20:17.432Z,3.10
2022-08-22T10:23:21.042Z,4.25
2022-08-22T10:26:22.918Z,2.90
2022-08-22T10:29:17.727Z,3.38
2022-08-22T10:32:01.364Z,3.50
2022-08-22T10:34:46.401Z,3.45
2022-08-22T10:37:37.383Z,3.22
2022-08-22T10:40:37.883Z,3.10
2022-08-22T10:43:21.049Z,3.05
2022-08-22T10:46:06.800Z,3.22
2022-08-22T10:48:54.317Z,3.10
2022-08-22T10:51:33.719Z,3.00
2022-08-22T10:54:24.857Z,3.90
2022-08-22T10:57:24.780Z,3.80
2022-08-22T11:00:31.035Z,3.88
2022-08-22T11:03:20.016Z,3.20
2022-08-22T11:05:50.832Z,3.20
2022-08-22T11:08:26.671Z,4.97
2022-08-22T11:11:09.495Z,3.15
2022-08-22T11:13:54.295Z,3.45
2022-08-22T11:16:27.010Z,3.33
2022-08-22T11:19:27.561Z,3.20
2022-08-22T11:22:13.845Z,3.28
2022-08-22T11:25:36.009Z,3.30
2022-08-22T11:28:43.346Z,3.67
2022-08-22T11:31:36.740Z,3.00
2022-08-22T11:34:29.747Z,3.70
2022-08-22T11:37:11.584Z,3.40
2022-08-22T11:40:16.808Z,3.35
2022-08-22T11:42:56.800Z,3.38
2022-08-22T11:45:31.317Z,3.25
2022-08-22T11:48:07.801Z,3.80
2022-08-22T11:50:42.198Z,3.90
2022-08-22T11:53:16.829Z,3.35
2022-08-22T11:56:08.432Z,3.30
2022-08-22T11:58:43.102Z,3.08
2022-08-22T12:01:19.655Z,3.53
2022-08-22T12:04:04.197Z,3.00
2022-08-22T12:06:58.576Z,3.40
2022-08-22T12:09:58.192Z,3.70
2022-08-22T12:15:02.482Z,3.65
2022-08-22T12:17:55.765Z,3.60
2022-08-22T12:20:45.582Z,3.40
2022-08-22T12:23:49.778Z,3.25
2022-08-22T12:26:35.845Z,3.80
2022-08-22T12:29:17.608Z,3.40
2022-08-22T12:32:27.432Z,3.85
2022-08-22T12:35:13.873Z,3.78
2022-08-22T12:38:04.515Z,3.45
2022-08-22T12:41:28.079Z,3.45
2022-08-22T12:46:55.491Z,3.13
2022-08-22T12:49:52.252Z,2.95
2022-08-22T12:52:31.192Z,3.38
2022-08-22T12:55:36.628Z,3.85
2022-08-22T12:58:28.549Z,3.55
2022-08-22T13:01:06.348Z,4.03
2022-08-22T13:03:50.337Z,4.32
2022-08-22T13:06:35.051Z,3.50
2022-08-22T13:09:28.547Z,3.53
2022-08-22T13:12:02.409Z,3.72
2022-08-22T13:14:34.048Z,3.50
2022-08-22T13:17:23.858Z,3.13
2022-08-22T13:20:08.680Z,4.00
2022-08-22T13:22:40.512Z,3.85
2022-08-22T13:25:26.593Z,3.83
2022-08-22T13:28:00.897Z,3.85
2022-08-22T13:30:32.884Z,4.15
2022-08-22T13:33:16.340Z,3.95
2022-08-22T13:35:52.126Z,3.63
2022-08-22T13:38:38.226Z,4.05
2022-08-22T13:41:19.048Z,3.55
2022-08-22T13:44:26.729Z,4.03
2022-08-22T13:47:13.842Z,3.92
2022-08-22T13:49:48.991Z,3.38
2022-08-22T13:52:30.561Z,3.85
2022-08-22T13:55:15.420Z,3.40
2022-08-22T13:57:45.587Z,3.17
2022-08-22T14:00:22.381Z,3.72
2022-08-22T14:03:05.430Z,3.35
2022-08-22T14:05:40.548Z,3.50
2022-08-22T14:08:19.433Z,3.38
2022-08-22T14:10:55.095Z,3.30
2022-08-22T14:13:47.674Z,3.40
2022-08-22T14:16:25.679Z,3.10
2022-08-22T14:18:57.904Z,3.17
2022-08-22T14:21:40.246Z,3.85
2022-08-22T14:24:45.603Z,3.60
2022-08-22T14:27:15.932Z,3.50
2022-08-22T14:30:06.054Z,3.60
2022-08-22T14:32:44.943Z,3.60
2022-08-22T14:38:17.227Z,3.60
2022-08-22T14:40:45.526Z,3.90
2022-08-22T14:43:40.615Z,3.50
2022-08-22T14:46:14.424Z,3.83
2022-08-22T14:49:26.740Z,3.55
2022-08-22T14:52:19.901Z,3.53
2022-08-22T14:54:47.295Z,3.20
2022-08-22T14:57:20.093Z,3.13
2022-08-22T14:59:50.579Z,3.42
2022-08-22T15:02:31.726Z,3.30
2022-08-22T15:05:13.470Z,2.97
2022-08-22T15:07:40.561Z,3.00
2022-08-22T15:10:22.219Z,3.03
2022-08-22T15:15:30.229Z,3.03
2022-08-22T15:17:57.163Z,3.28
2022-08-22T15:20:36.223Z,3.10
2022-08-22T15:23:16.309Z,2.92
2022-08-22T15:25:47.054Z,3.38
2022-08-22T15:28:17.187Z,3.22
2022-08-22T15:30:57.715Z,3.20
2022-08-22T15:33:32.444Z,2.92
2022-08-22T15:36:11.441Z,3.20
2022-08-22T15:38:48.753Z,3.47
2022-08-22T15:41:36.325Z,2.97
2022-08-22T15:44:06.427Z,2.95
2022-08-22T15:46:39.929Z,3.17
2022-08-22T15:49:21.421Z,3.13
2022-08-22T15:52:03.073Z,2.97
2022-08-22T15:54:54.568Z,2.70
2022-08-22T15:57:31.821Z,3.08
2022-08-22T16:00:04.470Z,3.50
2022-08-22T16:05:34.675Z,3.15
2022-08-22T16:08:06.661Z,3.10
2022-08-22T16:10:40.595Z,2.92
2022-08-22T16:13:30.267Z,2.90
2022-08-22T16:16:25.786Z,2.97
2022-08-22T16:18:52.441Z,3.08
2022-08-22T16:21:22.361Z,3.00
2022-08-22T16:23:49.743Z,2.75
2022-08-22T16:26:31.756Z,3.30
2022-08-22T16:29:14.717Z,2.88
2022-08-22T16:31:44.306Z,3.03
2022-08-22T16:34:17.295Z,3.25
2022-08-22T16:37:08.839Z,3.13
2022-08-22T16:39:54.099Z,2.70
2022-08-22T16:42:23.833Z,3.30
2022-08-22T16:45:02.441Z,3.40
2022-08-22T16:47:32.651Z,3.00
2022-08-22T16:50:23.910Z,3.20
2022-08-22T16:53:05.271Z,3.05
2022-08-22T16:55:32.634Z,3.22
2022-08-22T16:58:23.417Z,3.10
2022-08-22T17:00:57.938Z,2.90
2022-08-22T17:03:43.818Z,3.08
2022-08-22T17:06:20.800Z,2.78
2022-08-22T17:08:57.254Z,2.63
2022-08-22T17:11:23.970Z,2.72
2022-08-22T17:14:16.103Z,3.05
2022-08-22T17:17:04.085Z,3.05
2022-08-22T17:19:59.503Z,2.95
2022-08-22T17:22:29.328Z,3.63
2022-08-22T17:25:19.210Z,3.42
2022-08-22T17:27:52.686Z,3.08
2022-08-22T17:30:54.496Z,3.10
2022-08-22T17:33:51.914Z,3.50
2022-08-22T17:36:34.465Z,3.92
2022-08-22T17:39:06.894Z,3.13
2022-08-22T17:41:46.003Z,3.28
2022-08-22T17:44:18.544Z,3.45
2022-08-22T17:46:52.471Z,3.35
2022-08-22T17:49:45.217Z,3.95
2022-08-22T17:52:33.736Z,4.20
2022-08-22T17:55:21.880Z,4.75
2022-08-22T17:57:55.625Z,3.80
2022-08-22T18:00:35.610Z,3.13
2022-08-22T18:03:08.841Z,3.03
2022-08-22T18:05:53.149Z,2.70
2022-08-22T18:11:20.333Z,3.17
2022-08-22T18:14:05.758Z,2.50
2022-08-22T18:16:41.551Z,2.70
2022-08-22T18:20:03.119Z,2.83
2022-08-22T18:22:46.629Z,2.67
2022-08-22T18:25:19.343Z,3.58
2022-08-22T18:27:55.695Z,3.28
2022-08-22T18:30:28.283Z,2.42
2022-08-22T18:33:16.932Z,2.85
2022-08-22T18:35:53.855Z,2.65
2022-08-22T18:38:59.742Z,2.65
2022-08-22T18:41:43.046Z,2.88
2022-08-22T18:44:13.182Z,2.40
2022-08-22T18:46:52.043Z,2.67
2022-08-22T18:49:19.523Z,2.88
2022-08-22T18:52:05.449Z,2.83
2022-08-22T18:54:31.977Z,2.33
2022-08-22T18:57:22.721Z,2.38
2022-08-22T19:00:17.091Z,3.10
2022-08-22T19:02:55.845Z,2.60
2022-08-22T19:05:22.714Z,2.83
2022-08-22T19:08:14.406Z,2.33
2022-08-22T19:11:14.779Z,2.10
2022-08-22T19:14:15.602Z,2.03
2022-08-22T19:17:06.139Z,2.70
2022-08-22T19:20:13.212Z,2.50
2022-08-22T19:22:40.274Z,2.47
2022-08-22T19:25:12.531Z,2.40
2022-08-22T19:27:44.595Z,2.53
2022-08-22T19:30:29.274Z,2.83
2022-08-22T19:32:59.813Z,2.70
2022-08-22T19:35:45.582Z,2.60
2022-08-22T19:38:32.258Z,2.70
2022-08-22T19:40:59.184Z,2.70
2022-08-22T19:43:40.684Z,2.55
2022-08-22T19:46:11.954Z,2.50
2022-08-22T19:48:49.191Z,2.30
2022-08-22T19:51:15.741Z,2.42
2022-08-22T19:53:45.982Z,2.28
2022-08-22T19:56:30.564Z,2.50
2022-08-22T19:59:22.767Z,2.08
2022-08-22T20:01:58.399Z,2.35
2022-08-22T20:04:37.141Z,3.50
2022-08-22T20:07:27.903Z,3.78
2022-08-22T20:10:18.204Z,4.78
2022-08-22T20:12:54.157Z,4.63
2022-08-22T20:15:24.368Z,4.22
2022-08-22T20:20:58.295Z,3.70
2022-08-22T20:23:29.615Z,3.90
2022-08-22T20:25:58.145Z,3.65
2022-08-22T20:28:34.082Z,3.88
2022-08-22T20:31:04.141Z,3.97
2022-08-22T20:33:39.008Z,3.63
2022-08-22T20:36:18.530Z,3.60
2022-08-22T20:39:00.583Z,3.03
2022-08-22T20:41:35.595Z,3.33
2022-08-22T20:44:17.686Z,2.95
2022-08-22T20:46:55.799Z,3.25
2022-08-22T20:49:30.024Z,2.97
2022-08-22T20:52:07.395Z,3.00
2022-08-22T20:54:39.815Z,3.08
2022-08-22T20:57:21.527Z,2.95
2022-08-22T20:59:57.784Z,3.35
2022-08-22T21:02:34.155Z,3.58
2022-08-22T21:05:00.758Z,3.05
2022-08-22T21:07:38.492Z,3.03
2022-08-22T21:10:45.054Z,3.20
2022-08-22T21:13:21.669Z,3.60
2022-08-22T21:15:55.183Z,3.75
2022-08-22T21:18:37.788Z,3.70
2022-08-22T21:21:34.730Z,3.58
2022-08-22T21:24:04.540Z,3.38
2022-08-22T21:26:46.216Z,3.65
2022-08-22T21:29:12.901Z,3.63
2022-08-22T21:31:45.587Z,3.08
2022-08-22T21:34:14.983Z,2.90
2022-08-22T21:36:41.837Z,3.10
2022-08-22T21:39:22.257Z,3.25
2022-08-22T21:42:11.984Z,3.35
2022-08-22T21:44:42.318Z,3.03
2022-08-22T21:47:32.337Z,2.90
2022-08-22T21:50:03.079Z,3.05
2022-08-22T21:52:31.894Z,3.30
2022-08-22T21:55:24.583Z,3.03
2022-08-22T21:58:06.469Z,3.78
2022-08-22T22:00:54.502Z,3.38
2022-08-22T22:03:36.338Z,3.20
2022-08-22T22:06:05.458Z,2.80
2022-08-22T22:08:33.444Z,2.90
2022-08-22T22:11:04.722Z,2.90
2022-08-22T22:13:35.458Z,3.30
2022-08-22T22:16:02.658Z,3.35
2022-08-22T22:18:33.970Z,2.88
2022-08-22T22:21:01.347Z,3.17
2022-08-22T22:23:28.524Z,3.15
2022-08-22T22:25:57.738Z,2.85
2022-08-22T22:28:30.121Z,2.80
2022-08-22T22:30:56.771Z,3.17
2022-08-22T22:33:26.614Z,2.63
2022-08-22T22:35:55.926Z,3.03
2022-08-22T22:38:24.262Z,2.65
2022-08-22T22:40:51.929Z,2.97
2022-08-22T22:43:18.942Z,3.10
2022-08-22T22:45:45.562Z,2.80
2022-08-22T22:48:17.545Z,2.75
2022-08-22T22:50:50.802Z,3.00
2022-08-22T22:53:19.486Z,2.95
2022-08-22T22:55:59.993Z,3.10
2022-08-22T22:58:27.947Z,2.95
2022-08-22T23:00:55.321Z,3.42
2022-08-22T23:03:22.198Z,2.65
2022-08-22T23:05:48.888Z,3.30
2022-08-22T23:08:15.458Z,3.00
2022-08-22T23:10:42.069Z,2.90
2022-08-22T23:13:08.909Z,2.85
2022-08-22T23:15:37.078Z,3.15
2022-08-22T23:18:03.775Z,2.78
2022-08-22T23:20:30.468Z,3.00
2022-08-22T23:22:57.089Z,3.58
2022-08-22T23:25:23.695Z,3.75
2022-08-22T23:27:52.546Z,3.95
2022-08-22T23:30:20.146Z,4.20
2022-08-22T23:32:46.741Z,3.70
2022-08-22T23:35:13.607Z,3.45
2022-08-22T23:37:40.204Z,3.53
2022-08-22T23:40:08.670Z,4.10
2022-08-22T23:42:35.335Z,3.53
2022-08-22T23:45:02.067Z,4.30
2022-08-22T23:47:28.668Z,3.30
2022-08-22T23:49:55.293Z,3.05
2022-08-22T23:52:24.850Z,3.42
2022-08-22T23:54:54.553Z,3.65
2022-08-22T23:59:57.897Z,3.58
